sensor_id;sensor_type;location;lat;lon;timestamp;temperature;humidity
80290;SHT30;69592;44.804;-0.550;2024-01-06T00:00:50;6.84;96.19
80290;SHT30;69592;44.804;-0.550;2024-01-06T00:03:16;6.87;96.21
80290;SHT30;69592;44.804;-0.550;2024-01-06T00:05:41;6.91;96.13
80290;SHT30;69592;44.804;-0.550;2024-01-06T00:08:06;6.98;96.25
80290;SHT30;69592;44.804;-0.550;2024-01-06T00:10:32;6.98;96.27
80290;SHT30;69592;44.804;-0.550;2024-01-06T00:12:57;6.93;96.09
80290;SHT30;69592;44.804;-0.550;2024-01-06T00:15:23;6.89;95.59
80290;SHT30;69592;44.804;-0.550;2024-01-06T00:17:48;6.91;95.83
80290;SHT30;69592;44.804;-0.550;2024-01-06T00:20:14;6.82;96.13
80290;SHT30;69592;44.804;-0.550;2024-01-06T00:22:39;6.75;96.11
80290;SHT30;69592;44.804;-0.550;2024-01-06T00:25:05;6.75;95.78
80290;SHT30;69592;44.804;-0.550;2024-01-06T00:27:30;6.79;96.04
80290;SHT30;69592;44.804;-0.550;2024-01-06T00:29:56;6.72;95.89
80290;SHT30;69592;44.804;-0.550;2024-01-06T00:32:21;6.77;96.07
80290;SHT30;69592;44.804;-0.550;2024-01-06T00:34:46;6.67;96.53
80290;SHT30;69592;44.804;-0.550;2024-01-06T00:37:12;6.58;96.55
80290;SHT30;69592;44.804;-0.550;2024-01-06T00:39:38;6.59;96.34
80290;SHT30;69592;44.804;-0.550;2024-01-06T00:42:03;6.65;96.35
80290;SHT30;69592;44.804;-0.550;2024-01-06T00:44:29;6.68;96.29
80290;SHT30;69592;44.804;-0.550;2024-01-06T00:46:54;6.67;96.17
80290;SHT30;69592;44.804;-0.550;2024-01-06T00:49:19;6.65;96.08
80290;SHT30;69592;44.804;-0.550;2024-01-06T00:51:45;6.58;95.68
80290;SHT30;69592;44.804;-0.550;2024-01-06T00:54:10;6.61;95.88
80290;SHT30;69592;44.804;-0.550;2024-01-06T00:56:36;6.65;96.22
80290;SHT30;69592;44.804;-0.550;2024-01-06T00:59:01;6.68;96.01
80290;SHT30;69592;44.804;-0.550;2024-01-06T01:01:26;6.68;95.76
80290;SHT30;69592;44.804;-0.550;2024-01-06T01:03:52;6.68;96.09
80290;SHT30;69592;44.804;-0.550;2024-01-06T01:06:17;6.77;95.91
80290;SHT30;69592;44.804;-0.550;2024-01-06T01:08:42;6.78;95.53
80290;SHT30;69592;44.804;-0.550;2024-01-06T01:11:08;6.75;95.55
80290;SHT30;69592;44.804;-0.550;2024-01-06T01:13:34;6.78;95.82
80290;SHT30;69592;44.804;-0.550;2024-01-06T01:15:59;6.81;96.21
80290;SHT30;69592;44.804;-0.550;2024-01-06T01:18:24;6.79;95.60
80290;SHT30;69592;44.804;-0.550;2024-01-06T01:20:50;6.74;95.93
80290;SHT30;69592;44.804;-0.550;2024-01-06T01:23:15;6.88;96.16
80290;SHT30;69592;44.804;-0.550;2024-01-06T01:25:41;6.82;96.17
80290;SHT30;69592;44.804;-0.550;2024-01-06T01:28:06;6.89;96.49
80290;SHT30;69592;44.804;-0.550;2024-01-06T01:30:31;6.93;96.32
80290;SHT30;69592;44.804;-0.550;2024-01-06T01:32:57;6.79;96.92
80290;SHT30;69592;44.804;-0.550;2024-01-06T01:35:23;6.87;97.03
80290;SHT30;69592;44.804;-0.550;2024-01-06T01:37:48;6.85;96.87
80290;SHT30;69592;44.804;-0.550;2024-01-06T01:40:14;6.82;96.96
80290;SHT30;69592;44.804;-0.550;2024-01-06T01:42:42;6.87;96.88
80290;SHT30;69592;44.804;-0.550;2024-01-06T01:45:08;6.87;96.87
80290;SHT30;69592;44.804;-0.550;2024-01-06T01:47:33;6.87;96.81
80290;SHT30;69592;44.804;-0.550;2024-01-06T01:49:59;6.87;96.67
80290;SHT30;69592;44.804;-0.550;2024-01-06T01:52:26;6.79;97.01
80290;SHT30;69592;44.804;-0.550;2024-01-06T01:54:52;6.74;97.19
80290;SHT30;69592;44.804;-0.550;2024-01-06T01:57:18;6.84;97.10
80290;SHT30;69592;44.804;-0.550;2024-01-06T01:59:44;6.78;96.91
80290;SHT30;69592;44.804;-0.550;2024-01-06T02:02:10;6.84;97.03
80290;SHT30;69592;44.804;-0.550;2024-01-06T02:04:36;6.91;97.07
80290;SHT30;69592;44.804;-0.550;2024-01-06T02:07:01;6.84;97.03
80290;SHT30;69592;44.804;-0.550;2024-01-06T02:09:27;6.81;96.94
80290;SHT30;69592;44.804;-0.550;2024-01-06T02:11:56;6.77;97.35
80290;SHT30;69592;44.804;-0.550;2024-01-06T02:14:21;6.85;97.53
80290;SHT30;69592;44.804;-0.550;2024-01-06T02:16:47;6.87;97.36
80290;SHT30;69592;44.804;-0.550;2024-01-06T02:19:13;6.92;97.14
80290;SHT30;69592;44.804;-0.550;2024-01-06T02:21:43;6.96;96.78
80290;SHT30;69592;44.804;-0.550;2024-01-06T02:24:09;7.05;96.86
80290;SHT30;69592;44.804;-0.550;2024-01-06T02:26:34;7.08;96.63
80290;SHT30;69592;44.804;-0.550;2024-01-06T02:29:00;7.05;97.28
80290;SHT30;69592;44.804;-0.550;2024-01-06T02:31:27;7.11;97.19
80290;SHT30;69592;44.804;-0.550;2024-01-06T02:33:52;7.19;97.18
80290;SHT30;69592;44.804;-0.550;2024-01-06T02:36:17;7.20;97.36
80290;SHT30;69592;44.804;-0.550;2024-01-06T02:38:43;7.22;97.25
80290;SHT30;69592;44.804;-0.550;2024-01-06T02:41:08;7.23;96.67
80290;SHT30;69592;44.804;-0.550;2024-01-06T02:43:33;7.19;96.79
80290;SHT30;69592;44.804;-0.550;2024-01-06T02:45:59;7.22;96.89
80290;SHT30;69592;44.804;-0.550;2024-01-06T02:48:24;7.09;97.09
80290;SHT30;69592;44.804;-0.550;2024-01-06T02:50:49;7.02;97.05
80290;SHT30;69592;44.804;-0.550;2024-01-06T02:53:15;7.03;96.85
80290;SHT30;69592;44.804;-0.550;2024-01-06T02:55:40;7.02;97.17
80290;SHT30;69592;44.804;-0.550;2024-01-06T02:58:05;6.93;97.33
80290;SHT30;69592;44.804;-0.550;2024-01-06T03:00:31;6.96;97.20
80290;SHT30;69592;44.804;-0.550;2024-01-06T03:02:56;6.93;97.29
80290;SHT30;69592;44.804;-0.550;2024-01-06T03:05:21;6.93;97.17
80290;SHT30;69592;44.804;-0.550;2024-01-06T03:07:47;6.99;97.19
80290;SHT30;69592;44.804;-0.550;2024-01-06T03:10:12;6.91;97.67
80290;SHT30;69592;44.804;-0.550;2024-01-06T03:12:37;6.75;97.66
80290;SHT30;69592;44.804;-0.550;2024-01-06T03:15:03;6.69;97.68
80290;SHT30;69592;44.804;-0.550;2024-01-06T03:17:28;6.69;97.60
80290;SHT30;69592;44.804;-0.550;2024-01-06T03:19:54;6.75;97.29
80290;SHT30;69592;44.804;-0.550;2024-01-06T03:22:20;6.77;97.10
80290;SHT30;69592;44.804;-0.550;2024-01-06T03:24:45;6.74;97.11
80290;SHT30;69592;44.804;-0.550;2024-01-06T03:27:11;6.69;97.15
80290;SHT30;69592;44.804;-0.550;2024-01-06T03:29:37;6.71;97.26
80290;SHT30;69592;44.804;-0.550;2024-01-06T03:32:03;6.69;97.03
80290;SHT30;69592;44.804;-0.550;2024-01-06T03:34:28;6.78;96.99
80290;SHT30;69592;44.804;-0.550;2024-01-06T03:36:54;6.72;96.76
80290;SHT30;69592;44.804;-0.550;2024-01-06T03:39:19;6.82;97.05
80290;SHT30;69592;44.804;-0.550;2024-01-06T03:41:45;6.81;97.17
80290;SHT30;69592;44.804;-0.550;2024-01-06T03:44:10;6.79;97.09
80290;SHT30;69592;44.804;-0.550;2024-01-06T03:46:37;6.67;96.81
80290;SHT30;69592;44.804;-0.550;2024-01-06T03:49:02;6.68;97.07
80290;SHT30;69592;44.804;-0.550;2024-01-06T03:51:27;6.72;97.17
80290;SHT30;69592;44.804;-0.550;2024-01-06T03:53:53;6.67;97.10
80290;SHT30;69592;44.804;-0.550;2024-01-06T03:56:18;6.59;97.26
80290;SHT30;69592;44.804;-0.550;2024-01-06T03:58:44;6.58;97.30
80290;SHT30;69592;44.804;-0.550;2024-01-06T04:01:09;6.51;97.14
80290;SHT30;69592;44.804;-0.550;2024-01-06T04:03:35;6.49;97.16
80290;SHT30;69592;44.804;-0.550;2024-01-06T04:06:01;6.52;96.93
80290;SHT30;69592;44.804;-0.550;2024-01-06T04:08:26;6.51;96.91
80290;SHT30;69592;44.804;-0.550;2024-01-06T04:10:51;6.47;96.84
80290;SHT30;69592;44.804;-0.550;2024-01-06T04:13:17;6.48;96.87
80290;SHT30;69592;44.804;-0.550;2024-01-06T04:15:42;6.45;96.71
80290;SHT30;69592;44.804;-0.550;2024-01-06T04:18:07;6.45;96.88
80290;SHT30;69592;44.804;-0.550;2024-01-06T04:20:34;6.42;97.15
80290;SHT30;69592;44.804;-0.550;2024-01-06T04:23:00;6.48;97.31
80290;SHT30;69592;44.804;-0.550;2024-01-06T04:25:25;6.47;97.63
80290;SHT30;69592;44.804;-0.550;2024-01-06T04:27:51;6.41;97.97
80290;SHT30;69592;44.804;-0.550;2024-01-06T04:30:17;6.36;98.45
80290;SHT30;69592;44.804;-0.550;2024-01-06T04:32:43;6.33;98.31
80290;SHT30;69592;44.804;-0.550;2024-01-06T04:35:09;6.33;98.68
80290;SHT30;69592;44.804;-0.550;2024-01-06T04:37:34;6.30;99.18
80290;SHT30;69592;44.804;-0.550;2024-01-06T04:40:00;6.23;99.46
80290;SHT30;69592;44.804;-0.550;2024-01-06T04:42:25;6.27;99.42
80290;SHT30;69592;44.804;-0.550;2024-01-06T04:44:51;6.26;99.45
80290;SHT30;69592;44.804;-0.550;2024-01-06T04:47:16;6.28;99.23
80290;SHT30;69592;44.804;-0.550;2024-01-06T04:49:42;6.28;99.15
80290;SHT30;69592;44.804;-0.550;2024-01-06T04:52:07;6.26;99.25
80290;SHT30;69592;44.804;-0.550;2024-01-06T04:54:32;6.33;99.18
80290;SHT30;69592;44.804;-0.550;2024-01-06T04:56:58;6.31;99.22
80290;SHT30;69592;44.804;-0.550;2024-01-06T04:59:24;6.34;98.94
80290;SHT30;69592;44.804;-0.550;2024-01-06T05:01:51;6.31;98.94
80290;SHT30;69592;44.804;-0.550;2024-01-06T05:04:17;6.21;98.69
80290;SHT30;69592;44.804;-0.550;2024-01-06T05:06:42;6.16;99.17
80290;SHT30;69592;44.804;-0.550;2024-01-06T05:09:08;6.10;99.56
80290;SHT30;69592;44.804;-0.550;2024-01-06T05:11:33;6.09;99.65
80290;SHT30;69592;44.804;-0.550;2024-01-06T05:13:58;6.11;99.24
80290;SHT30;69592;44.804;-0.550;2024-01-06T05:16:24;6.09;99.16
80290;SHT30;69592;44.804;-0.550;2024-01-06T05:18:49;5.99;99.55
80290;SHT30;69592;44.804;-0.550;2024-01-06T05:21:14;6.00;99.53
80290;SHT30;69592;44.804;-0.550;2024-01-06T05:23:40;5.99;99.42
80290;SHT30;69592;44.804;-0.550;2024-01-06T05:26:05;5.95;99.63
80290;SHT30;69592;44.804;-0.550;2024-01-06T05:28:31;5.85;99.83
80290;SHT30;69592;44.804;-0.550;2024-01-06T05:30:56;5.85;99.99
80290;SHT30;69592;44.804;-0.550;2024-01-06T05:33:22;5.89;99.95
80290;SHT30;69592;44.804;-0.550;2024-01-06T05:35:47;5.87;99.75
80290;SHT30;69592;44.804;-0.550;2024-01-06T05:38:12;5.85;99.72
80290;SHT30;69592;44.804;-0.550;2024-01-06T05:40:38;5.76;99.92
80290;SHT30;69592;44.804;-0.550;2024-01-06T05:43:03;5.82;99.81
80290;SHT30;69592;44.804;-0.550;2024-01-06T05:45:28;5.79;99.83
80290;SHT30;69592;44.804;-0.550;2024-01-06T05:47:54;5.77;99.84
80290;SHT30;69592;44.804;-0.550;2024-01-06T05:50:19;5.75;99.78
80290;SHT30;69592;44.804;-0.550;2024-01-06T05:52:44;5.70;99.99
80290;SHT30;69592;44.804;-0.550;2024-01-06T05:55:12;5.72;99.99
80290;SHT30;69592;44.804;-0.550;2024-01-06T05:57:40;5.70;99.99
80290;SHT30;69592;44.804;-0.550;2024-01-06T06:00:09;5.66;99.99
80290;SHT30;69592;44.804;-0.550;2024-01-06T06:02:35;5.72;99.99
80290;SHT30;69592;44.804;-0.550;2024-01-06T06:05:00;5.67;99.99
80290;SHT30;69592;44.804;-0.550;2024-01-06T06:07:25;5.66;99.99
80290;SHT30;69592;44.804;-0.550;2024-01-06T06:09:51;5.69;99.99
80290;SHT30;69592;44.804;-0.550;2024-01-06T06:12:18;5.72;99.99
80290;SHT30;69592;44.804;-0.550;2024-01-06T06:14:43;5.72;99.99
80290;SHT30;69592;44.804;-0.550;2024-01-06T06:17:11;5.73;99.99
80290;SHT30;69592;44.804;-0.550;2024-01-06T06:19:37;5.77;99.99
80290;SHT30;69592;44.804;-0.550;2024-01-06T06:22:03;5.82;99.89
80290;SHT30;69592;44.804;-0.550;2024-01-06T06:24:29;5.86;99.77
80290;SHT30;69592;44.804;-0.550;2024-01-06T06:26:54;5.86;99.69
80290;SHT30;69592;44.804;-0.550;2024-01-06T06:29:19;5.92;99.58
80290;SHT30;69592;44.804;-0.550;2024-01-06T06:31:46;5.99;99.38
80290;SHT30;69592;44.804;-0.550;2024-01-06T06:34:12;5.87;99.37
80290;SHT30;69592;44.804;-0.550;2024-01-06T06:36:37;5.87;99.38
80290;SHT30;69592;44.804;-0.550;2024-01-06T06:39:03;5.93;99.33
80290;SHT30;69592;44.804;-0.550;2024-01-06T06:41:29;5.95;99.25
80290;SHT30;69592;44.804;-0.550;2024-01-06T06:43:56;5.99;99.11
80290;SHT30;69592;44.804;-0.550;2024-01-06T06:46:22;6.00;99.10
80290;SHT30;69592;44.804;-0.550;2024-01-06T06:48:48;6.03;98.91
80290;SHT30;69592;44.804;-0.550;2024-01-06T06:51:13;5.97;99.09
80290;SHT30;69592;44.804;-0.550;2024-01-06T06:53:39;5.97;99.10
80290;SHT30;69592;44.804;-0.550;2024-01-06T06:56:04;5.90;99.31
80290;SHT30;69592;44.804;-0.550;2024-01-06T06:58:30;5.87;99.29
80290;SHT30;69592;44.804;-0.550;2024-01-06T07:00:55;5.85;99.34
80290;SHT30;69592;44.804;-0.550;2024-01-06T07:03:21;5.77;99.67
80290;SHT30;69592;44.804;-0.550;2024-01-06T07:05:47;5.80;99.73
80290;SHT30;69592;44.804;-0.550;2024-01-06T07:08:12;5.80;99.52
80290;SHT30;69592;44.804;-0.550;2024-01-06T07:10:40;5.86;99.55
80290;SHT30;69592;44.804;-0.550;2024-01-06T07:13:06;5.92;99.25
80290;SHT30;69592;44.804;-0.550;2024-01-06T07:15:31;5.92;99.17
80290;SHT30;69592;44.804;-0.550;2024-01-06T07:17:57;5.90;99.01
80290;SHT30;69592;44.804;-0.550;2024-01-06T07:20:22;5.87;99.06
80290;SHT30;69592;44.804;-0.550;2024-01-06T07:22:48;5.83;99.26
80290;SHT30;69592;44.804;-0.550;2024-01-06T07:25:13;5.82;99.43
80290;SHT30;69592;44.804;-0.550;2024-01-06T07:27:39;5.82;99.25
80290;SHT30;69592;44.804;-0.550;2024-01-06T07:30:05;5.86;99.13
80290;SHT30;69592;44.804;-0.550;2024-01-06T07:32:33;5.92;99.04
80290;SHT30;69592;44.804;-0.550;2024-01-06T07:34:58;5.89;98.96
80290;SHT30;69592;44.804;-0.550;2024-01-06T07:37:23;5.83;99.20
80290;SHT30;69592;44.804;-0.550;2024-01-06T07:39:49;5.82;99.12
80290;SHT30;69592;44.804;-0.550;2024-01-06T07:42:14;5.82;99.05
80290;SHT30;69592;44.804;-0.550;2024-01-06T07:44:39;5.83;98.97
80290;SHT30;69592;44.804;-0.550;2024-01-06T07:47:05;5.80;99.10
80290;SHT30;69592;44.804;-0.550;2024-01-06T07:49:30;5.82;98.70
80290;SHT30;69592;44.804;-0.550;2024-01-06T07:51:56;5.77;98.92
80290;SHT30;69592;44.804;-0.550;2024-01-06T07:54:22;5.85;98.91
80290;SHT30;69592;44.804;-0.550;2024-01-06T07:56:47;5.83;98.91
80290;SHT30;69592;44.804;-0.550;2024-01-06T07:59:13;5.92;98.65
80290;SHT30;69592;44.804;-0.550;2024-01-06T08:01:39;5.97;98.74
80290;SHT30;69592;44.804;-0.550;2024-01-06T08:04:04;5.97;98.73
80290;SHT30;69592;44.804;-0.550;2024-01-06T08:06:30;6.00;98.62
80290;SHT30;69592;44.804;-0.550;2024-01-06T08:08:55;6.06;98.32
80290;SHT30;69592;44.804;-0.550;2024-01-06T08:11:20;6.13;98.40
80290;SHT30;69592;44.804;-0.550;2024-01-06T08:13:46;6.17;97.99
80290;SHT30;69592;44.804;-0.550;2024-01-06T08:16:12;6.21;97.90
80290;SHT30;69592;44.804;-0.550;2024-01-06T08:18:37;6.26;97.81
80290;SHT30;69592;44.804;-0.550;2024-01-06T08:21:03;6.26;98.01
80290;SHT30;69592;44.804;-0.550;2024-01-06T08:23:28;6.38;98.16
80290;SHT30;69592;44.804;-0.550;2024-01-06T08:25:53;6.44;97.78
80290;SHT30;69592;44.804;-0.550;2024-01-06T08:28:19;6.51;97.76
80290;SHT30;69592;44.804;-0.550;2024-01-06T08:30:45;6.55;97.74
80290;SHT30;69592;44.804;-0.550;2024-01-06T08:33:10;6.65;97.41
80290;SHT30;69592;44.804;-0.550;2024-01-06T08:35:36;6.72;97.45
80290;SHT30;69592;44.804;-0.550;2024-01-06T08:38:06;6.81;97.33
80290;SHT30;69592;44.804;-0.550;2024-01-06T08:40:32;6.85;97.30
80290;SHT30;69592;44.804;-0.550;2024-01-06T08:42:57;6.99;97.02
80290;SHT30;69592;44.804;-0.550;2024-01-06T08:45:23;7.09;96.42
80290;SHT30;69592;44.804;-0.550;2024-01-06T08:47:48;7.18;96.39
80290;SHT30;69592;44.804;-0.550;2024-01-06T08:50:14;7.23;96.43
80290;SHT30;69592;44.804;-0.550;2024-01-06T08:52:39;7.34;96.49
80290;SHT30;69592;44.804;-0.550;2024-01-06T08:55:05;7.52;96.08
80290;SHT30;69592;44.804;-0.550;2024-01-06T08:57:30;7.54;95.49
80290;SHT30;69592;44.804;-0.550;2024-01-06T08:59:56;7.64;95.73
80290;SHT30;69592;44.804;-0.550;2024-01-06T09:02:21;7.87;95.51
80290;SHT30;69592;44.804;-0.550;2024-01-06T09:04:46;7.91;94.88
80290;SHT30;69592;44.804;-0.550;2024-01-06T09:07:12;7.73;95.30
80290;SHT30;69592;44.804;-0.550;2024-01-06T09:09:37;7.69;95.68
80290;SHT30;69592;44.804;-0.550;2024-01-06T09:12:03;7.63;95.70
80290;SHT30;69592;44.804;-0.550;2024-01-06T09:14:28;7.60;95.95
80290;SHT30;69592;44.804;-0.550;2024-01-06T09:16:55;7.57;95.84
80290;SHT30;69592;44.804;-0.550;2024-01-06T09:19:20;7.56;96.47
80290;SHT30;69592;44.804;-0.550;2024-01-06T09:21:47;7.49;96.56
80290;SHT30;69592;44.804;-0.550;2024-01-06T09:24:12;7.52;96.82
80290;SHT30;69592;44.804;-0.550;2024-01-06T09:26:39;7.56;96.89
80290;SHT30;69592;44.804;-0.550;2024-01-06T09:29:04;7.66;96.55
80290;SHT30;69592;44.804;-0.550;2024-01-06T09:31:30;7.63;96.60
80290;SHT30;69592;44.804;-0.550;2024-01-06T09:33:55;7.83;96.10
80290;SHT30;69592;44.804;-0.550;2024-01-06T09:36:21;8.04;95.51
80290;SHT30;69592;44.804;-0.550;2024-01-06T09:38:46;8.02;95.81
80290;SHT30;69592;44.804;-0.550;2024-01-06T09:41:12;8.01;95.53
80290;SHT30;69592;44.804;-0.550;2024-01-06T09:43:37;8.07;95.64
80290;SHT30;69592;44.804;-0.550;2024-01-06T09:46:14;8.09;95.60
80290;SHT30;69592;44.804;-0.550;2024-01-06T09:48:40;8.26;95.51
80290;SHT30;69592;44.804;-0.550;2024-01-06T09:51:10;8.25;95.10
80290;SHT30;69592;44.804;-0.550;2024-01-06T09:53:42;8.17;95.42
80290;SHT30;69592;44.804;-0.550;2024-01-06T09:56:08;8.36;95.77
80290;SHT30;69592;44.804;-0.550;2024-01-06T09:58:35;8.45;94.98
80290;SHT30;69592;44.804;-0.550;2024-01-06T10:01:02;8.50;94.84
80290;SHT30;69592;44.804;-0.550;2024-01-06T10:03:28;8.66;94.09
80290;SHT30;69592;44.804;-0.550;2024-01-06T10:05:53;8.72;94.17
80290;SHT30;69592;44.804;-0.550;2024-01-06T10:08:18;8.62;94.63
80290;SHT30;69592;44.804;-0.550;2024-01-06T10:10:45;8.72;94.50
80290;SHT30;69592;44.804;-0.550;2024-01-06T10:13:10;8.77;94.66
80290;SHT30;69592;44.804;-0.550;2024-01-06T10:15:35;8.93;94.31
80290;SHT30;69592;44.804;-0.550;2024-01-06T10:18:01;8.99;94.00
80290;SHT30;69592;44.804;-0.550;2024-01-06T10:20:28;8.94;93.59
80290;SHT30;69592;44.804;-0.550;2024-01-06T10:22:54;8.96;93.42
80290;SHT30;69592;44.804;-0.550;2024-01-06T10:25:23;9.24;93.21
80290;SHT30;69592;44.804;-0.550;2024-01-06T10:27:48;9.20;93.53
80290;SHT30;69592;44.804;-0.550;2024-01-06T10:30:14;9.32;93.15
80290;SHT30;69592;44.804;-0.550;2024-01-06T10:32:43;9.34;92.08
80290;SHT30;69592;44.804;-0.550;2024-01-06T10:35:09;9.20;92.74
80290;SHT30;69592;44.804;-0.550;2024-01-06T10:37:35;9.41;92.25
80290;SHT30;69592;44.804;-0.550;2024-01-06T10:40:13;9.44;91.41
80290;SHT30;69592;44.804;-0.550;2024-01-06T10:42:40;9.58;91.79
80290;SHT30;69592;44.804;-0.550;2024-01-06T10:45:08;9.62;91.84
80290;SHT30;69592;44.804;-0.550;2024-01-06T10:47:35;9.75;91.37
80290;SHT30;69592;44.804;-0.550;2024-01-06T10:50:01;9.84;90.16
80290;SHT30;69592;44.804;-0.550;2024-01-06T10:52:31;9.98;90.50
80290;SHT30;69592;44.804;-0.550;2024-01-06T10:54:57;10.15;90.88
80290;SHT30;69592;44.804;-0.550;2024-01-06T10:57:23;10.22;90.49
80290;SHT30;69592;44.804;-0.550;2024-01-06T10:59:51;10.32;89.87
80290;SHT30;69592;44.804;-0.550;2024-01-06T11:02:18;10.13;89.68
80290;SHT30;69592;44.804;-0.550;2024-01-06T11:04:48;10.25;90.03
80290;SHT30;69592;44.804;-0.550;2024-01-06T11:07:15;10.32;89.53
80290;SHT30;69592;44.804;-0.550;2024-01-06T11:12:15;10.67;88.83
80290;SHT30;69592;44.804;-0.550;2024-01-06T11:14:41;10.60;88.79
80290;SHT30;69592;44.804;-0.550;2024-01-06T11:17:06;10.52;88.95
80290;SHT30;69592;44.804;-0.550;2024-01-06T11:22:29;10.35;89.96
80290;SHT30;69592;44.804;-0.550;2024-01-06T11:25:03;10.06;90.23
80290;SHT30;69592;44.804;-0.550;2024-01-06T11:27:30;10.19;90.79
80290;SHT30;69592;44.804;-0.550;2024-01-06T11:30:02;10.10;90.51
80290;SHT30;69592;44.804;-0.550;2024-01-06T11:32:31;9.88;90.01
80290;SHT30;69592;44.804;-0.550;2024-01-06T11:35:12;9.68;91.11
80290;SHT30;69592;44.804;-0.550;2024-01-06T11:40:04;9.89;90.90
80290;SHT30;69592;44.804;-0.550;2024-01-06T11:42:33;9.71;90.88
80290;SHT30;69592;44.804;-0.550;2024-01-06T11:45:03;9.74;91.17
80290;SHT30;69592;44.804;-0.550;2024-01-06T11:47:32;9.96;90.94
80290;SHT30;69592;44.804;-0.550;2024-01-06T11:49:59;10.15;90.06
80290;SHT30;69592;44.804;-0.550;2024-01-06T11:52:25;10.29;89.85
80290;SHT30;69592;44.804;-0.550;2024-01-06T11:54:52;10.05;90.16
80290;SHT30;69592;44.804;-0.550;2024-01-06T11:57:18;10.33;90.44
80290;SHT30;69592;44.804;-0.550;2024-01-06T11:59:43;10.61;88.95
80290;SHT30;69592;44.804;-0.550;2024-01-06T12:02:12;10.61;88.81
80290;SHT30;69592;44.804;-0.550;2024-01-06T12:04:38;10.76;89.33
80290;SHT30;69592;44.804;-0.550;2024-01-06T12:07:09;10.76;89.30
80290;SHT30;69592;44.804;-0.550;2024-01-06T12:09:38;10.36;89.01
80290;SHT30;69592;44.804;-0.550;2024-01-06T12:12:04;10.53;89.55
80290;SHT30;69592;44.804;-0.550;2024-01-06T12:14:34;10.67;89.04
80290;SHT30;69592;44.804;-0.550;2024-01-06T12:17:04;10.68;88.33
80290;SHT30;69592;44.804;-0.550;2024-01-06T12:19:33;10.23;89.07
80290;SHT30;69592;44.804;-0.550;2024-01-06T12:21:59;10.20;89.65
80290;SHT30;69592;44.804;-0.550;2024-01-06T12:24:27;10.16;88.86
80290;SHT30;69592;44.804;-0.550;2024-01-06T12:26:53;9.68;89.70
80290;SHT30;69592;44.804;-0.550;2024-01-06T12:29:20;9.93;90.47
80290;SHT30;69592;44.804;-0.550;2024-01-06T12:31:46;9.96;90.79
80290;SHT30;69592;44.804;-0.550;2024-01-06T12:34:11;9.92;90.84
80290;SHT30;69592;44.804;-0.550;2024-01-06T12:36:37;9.86;90.88
80290;SHT30;69592;44.804;-0.550;2024-01-06T12:39:04;9.93;90.56
80290;SHT30;69592;44.804;-0.550;2024-01-06T12:41:29;9.81;89.57
80290;SHT30;69592;44.804;-0.550;2024-01-06T12:43:55;9.93;90.01
80290;SHT30;69592;44.804;-0.550;2024-01-06T12:46:21;10.08;89.48
80290;SHT30;69592;44.804;-0.550;2024-01-06T12:48:46;10.06;89.61
80290;SHT30;69592;44.804;-0.550;2024-01-06T12:51:11;10.06;88.63
80290;SHT30;69592;44.804;-0.550;2024-01-06T12:53:37;10.12;88.44
80290;SHT30;69592;44.804;-0.550;2024-01-06T12:56:05;10.06;88.46
80290;SHT30;69592;44.804;-0.550;2024-01-06T12:58:35;10.28;87.93
80290;SHT30;69592;44.804;-0.550;2024-01-06T13:01:00;10.16;87.95
80290;SHT30;69592;44.804;-0.550;2024-01-06T13:03:27;10.02;88.54
80290;SHT30;69592;44.804;-0.550;2024-01-06T13:05:53;10.01;89.43
80290;SHT30;69592;44.804;-0.550;2024-01-06T13:08:19;9.92;89.34
80290;SHT30;69592;44.804;-0.550;2024-01-06T13:10:44;10.12;89.37
80290;SHT30;69592;44.804;-0.550;2024-01-06T13:13:10;10.19;88.26
80290;SHT30;69592;44.804;-0.550;2024-01-06T13:15:35;10.29;87.51
80290;SHT30;69592;44.804;-0.550;2024-01-06T13:18:00;10.37;87.89
80290;SHT30;69592;44.804;-0.550;2024-01-06T13:20:26;10.57;87.47
80290;SHT30;69592;44.804;-0.550;2024-01-06T13:22:52;10.70;87.22
80290;SHT30;69592;44.804;-0.550;2024-01-06T13:25:17;10.84;86.47
80290;SHT30;69592;44.804;-0.550;2024-01-06T13:27:45;10.87;86.42
80290;SHT30;69592;44.804;-0.550;2024-01-06T13:30:10;11.01;86.21
80290;SHT30;69592;44.804;-0.550;2024-01-06T13:32:38;11.08;85.53
80290;SHT30;69592;44.804;-0.550;2024-01-06T13:35:04;11.14;85.04
80290;SHT30;69592;44.804;-0.550;2024-01-06T13:37:33;10.70;86.27
80290;SHT30;69592;44.804;-0.550;2024-01-06T13:39:59;10.70;85.46
80290;SHT30;69592;44.804;-0.550;2024-01-06T13:42:24;10.50;85.33
80290;SHT30;69592;44.804;-0.550;2024-01-06T13:44:49;10.70;85.47
80290;SHT30;69592;44.804;-0.550;2024-01-06T13:47:15;10.91;85.25
80290;SHT30;69592;44.804;-0.550;2024-01-06T13:49:40;10.88;85.35
80290;SHT30;69592;44.804;-0.550;2024-01-06T13:52:09;10.76;85.61
80290;SHT30;69592;44.804;-0.550;2024-01-06T13:54:35;10.98;85.40
80290;SHT30;69592;44.804;-0.550;2024-01-06T13:57:00;10.73;84.55
80290;SHT30;69592;44.804;-0.550;2024-01-06T13:59:26;10.70;84.84
80290;SHT30;69592;44.804;-0.550;2024-01-06T14:01:52;10.70;84.64
80290;SHT30;69592;44.804;-0.550;2024-01-06T14:04:17;11.08;84.04
80290;SHT30;69592;44.804;-0.550;2024-01-06T14:06:42;11.45;83.77
80290;SHT30;69592;44.804;-0.550;2024-01-06T14:09:08;11.52;83.05
80290;SHT30;69592;44.804;-0.550;2024-01-06T14:11:34;11.19;83.01
80290;SHT30;69592;44.804;-0.550;2024-01-06T14:13:59;11.14;83.64
80290;SHT30;69592;44.804;-0.550;2024-01-06T14:16:26;11.29;82.99
80290;SHT30;69592;44.804;-0.550;2024-01-06T14:18:51;11.10;83.14
80290;SHT30;69592;44.804;-0.550;2024-01-06T14:21:17;11.45;83.12
80290;SHT30;69592;44.804;-0.550;2024-01-06T14:23:47;11.48;81.38
80290;SHT30;69592;44.804;-0.550;2024-01-06T14:26:17;11.52;82.22
80290;SHT30;69592;44.804;-0.550;2024-01-06T14:28:45;11.70;81.05
80290;SHT30;69592;44.804;-0.550;2024-01-06T14:31:11;11.70;81.11
80290;SHT30;69592;44.804;-0.550;2024-01-06T14:33:36;11.82;80.79
80290;SHT30;69592;44.804;-0.550;2024-01-06T14:36:01;12.13;81.38
80290;SHT30;69592;44.804;-0.550;2024-01-06T14:38:28;12.23;80.63
80290;SHT30;69592;44.804;-0.550;2024-01-06T14:40:53;12.40;80.64
80290;SHT30;69592;44.804;-0.550;2024-01-06T14:43:18;12.16;80.88
80290;SHT30;69592;44.804;-0.550;2024-01-06T14:45:46;11.63;81.58
80290;SHT30;69592;44.804;-0.550;2024-01-06T14:48:12;11.18;81.01
80290;SHT30;69592;44.804;-0.550;2024-01-06T14:50:37;11.03;80.75
80290;SHT30;69592;44.804;-0.550;2024-01-06T14:53:02;10.67;82.09
80290;SHT30;69592;44.804;-0.550;2024-01-06T14:55:28;10.64;82.64
80290;SHT30;69592;44.804;-0.550;2024-01-06T14:57:53;10.52;82.61
80290;SHT30;69592;44.804;-0.550;2024-01-06T15:00:19;10.42;83.12
80290;SHT30;69592;44.804;-0.550;2024-01-06T15:02:44;10.25;83.58
80290;SHT30;69592;44.804;-0.550;2024-01-06T15:05:12;10.13;83.98
80290;SHT30;69592;44.804;-0.550;2024-01-06T15:07:37;9.98;84.46
80290;SHT30;69592;44.804;-0.550;2024-01-06T15:10:03;9.86;84.99
80290;SHT30;69592;44.804;-0.550;2024-01-06T15:12:29;9.78;85.42
80290;SHT30;69592;44.804;-0.550;2024-01-06T15:14:54;9.71;85.85
80290;SHT30;69592;44.804;-0.550;2024-01-06T15:17:20;9.74;86.04
80290;SHT30;69592;44.804;-0.550;2024-01-06T15:19:46;9.88;85.74
80290;SHT30;69592;44.804;-0.550;2024-01-06T15:22:12;9.78;85.52
80290;SHT30;69592;44.804;-0.550;2024-01-06T15:24:39;9.67;85.97
80290;SHT30;69592;44.804;-0.550;2024-01-06T15:27:04;9.64;86.20